sensor_id;sensor_type;location;lat;lon;timestamp;temperature;humidity
39899;DHT22;25571;47.876;10.642;2023-03-14T00:02:08;12.50;98.50
39899;DHT22;25571;47.876;10.642;2023-03-14T00:04:34;12.40;98.90
39899;DHT22;25571;47.876;10.642;2023-03-14T00:07:00;12.40;98.90
39899;DHT22;25571;47.876;10.642;2023-03-14T00:09:25;12.40;98.90
39899;DHT22;25571;47.876;10.642;2023-03-14T00:11:53;12.40;98.90
39899;DHT22;25571;47.876;10.642;2023-03-14T00:14:18;12.40;98.90
39899;DHT22;25571;47.876;10.642;2023-03-14T00:16:47;12.40;98.90
39899;DHT22;25571;47.876;10.642;2023-03-14T00:19:13;12.40;99.50
39899;DHT22;25571;47.876;10.642;2023-03-14T00:21:38;12.40;99.80
39899;DHT22;25571;47.876;10.642;2023-03-14T00:24:04;12.40;99.90
39899;DHT22;25571;47.876;10.642;2023-03-14T00:26:31;12.40;99.90
39899;DHT22;25571;47.876;10.642;2023-03-14T00:28:56;12.30;99.90
39899;DHT22;25571;47.876;10.642;2023-03-14T00:31:22;12.30;99.90
39899;DHT22;25571;47.876;10.642;2023-03-14T00:33:47;12.30;99.90
39899;DHT22;25571;47.876;10.642;2023-03-14T00:36:17;12.20;99.90
39899;DHT22;25571;47.876;10.642;2023-03-14T00:38:44;12.20;99.90
39899;DHT22;25571;47.876;10.642;2023-03-14T00:41:13;12.20;99.90
39899;DHT22;25571;47.876;10.642;2023-03-14T00:43:39;12.20;99.90
39899;DHT22;25571;47.876;10.642;2023-03-14T00:46:05;12.20;99.90
39899;DHT22;25571;47.876;10.642;2023-03-14T00:48:31;12.20;99.90
39899;DHT22;25571;47.876;10.642;2023-03-14T00:50:56;12.20;99.90
39899;DHT22;25571;47.876;10.642;2023-03-14T00:53:22;12.10;99.90
39899;DHT22;25571;47.876;10.642;2023-03-14T00:55:48;12.10;99.90
39899;DHT22;25571;47.876;10.642;2023-03-14T00:58:15;12.10;99.90
39899;DHT22;25571;47.876;10.642;2023-03-14T01:00:42;12.00;99.90
39899;DHT22;25571;47.876;10.642;2023-03-14T01:03:09;12.00;99.90
39899;DHT22;25571;47.876;10.642;2023-03-14T01:05:34;12.00;99.90
39899;DHT22;25571;47.876;10.642;2023-03-14T01:08:00;11.80;99.90
39899;DHT22;25571;47.876;10.642;2023-03-14T01:10:26;11.80;99.90
39899;DHT22;25571;47.876;10.642;2023-03-14T01:12:52;11.60;99.90
39899;DHT22;25571;47.876;10.642;2023-03-14T01:15:19;11.50;
39899;DHT22;25571;47.876;10.642;2023-03-14T01:17:45;11.50;99.90
39899;DHT22;25571;47.876;10.642;2023-03-14T01:20:13;11.50;99.90
39899;DHT22;25571;47.876;10.642;2023-03-14T01:22:40;11.50;99.90
39899;DHT22;25571;47.876;10.642;2023-03-14T01:25:12;11.50;99.90
39899;DHT22;25571;47.876;10.642;2023-03-14T01:27:38;11.50;99.90
39899;DHT22;25571;47.876;10.642;2023-03-14T01:30:04;11.40;99.90
39899;DHT22;25571;47.876;10.642;2023-03-14T01:32:30;11.50;99.90
39899;DHT22;25571;47.876;10.642;2023-03-14T01:34:56;11.50;99.90
39899;DHT22;25571;47.876;10.642;2023-03-14T01:37:22;11.40;99.90
39899;DHT22;25571;47.876;10.642;2023-03-14T01:39:47;11.40;99.90
39899;DHT22;25571;47.876;10.642;2023-03-14T01:42:14;11.40;99.90
39899;DHT22;25571;47.876;10.642;2023-03-14T01:47:15;11.20;99.90
39899;DHT22;25571;47.876;10.642;2023-03-14T01:49:41;11.10;99.90
39899;DHT22;25571;47.876;10.642;2023-03-14T01:52:12;10.90;99.90
39899;DHT22;25571;47.876;10.642;2023-03-14T01:54:44;11.00;99.90
39899;DHT22;25571;47.876;10.642;2023-03-14T01:57:16;10.80;99.90
39899;DHT22;25571;47.876;10.642;2023-03-14T01:59:46;10.80;99.90
39899;DHT22;25571;47.876;10.642;2023-03-14T02:02:13;10.70;99.90
39899;DHT22;25571;47.876;10.642;2023-03-14T02:04:41;10.70;99.90
39899;DHT22;25571;47.876;10.642;2023-03-14T02:07:20;10.50;99.90
39899;DHT22;25571;47.876;10.642;2023-03-14T02:09:48;10.40;99.90
39899;DHT22;25571;47.876;10.642;2023-03-14T02:12:16;10.40;99.90
39899;DHT22;25571;47.876;10.642;2023-03-14T02:14:42;10.30;99.90
39899;DHT22;25571;47.876;10.642;2023-03-14T02:17:14;10.10;99.90
39899;DHT22;25571;47.876;10.642;2023-03-14T02:22:31;9.90;99.90
39899;DHT22;25571;47.876;10.642;2023-03-14T02:27:55;9.70;99.90
39899;DHT22;25571;47.876;10.642;2023-03-14T02:30:23;9.40;99.90
39899;DHT22;25571;47.876;10.642;2023-03-14T02:32:55;9.30;99.90
39899;DHT22;25571;47.876;10.642;2023-03-14T02:35:25;9.20;99.90
39899;DHT22;25571;47.876;10.642;2023-03-14T02:40:20;9.00;99.90
39899;DHT22;25571;47.876;10.642;2023-03-14T02:42:46;9.00;99.90
39899;DHT22;25571;47.876;10.642;2023-03-14T02:47:40;9.00;99.90
39899;DHT22;25571;47.876;10.642;2023-03-14T02:50:11;9.00;99.90
39899;DHT22;25571;47.876;10.642;2023-03-14T02:52:38;9.00;99.90
39899;DHT22;25571;47.876;10.642;2023-03-14T02:55:04;8.90;99.90
39899;DHT22;25571;47.876;10.642;2023-03-14T02:57:29;9.00;99.90
39899;DHT22;25571;47.876;10.642;2023-03-14T02:59:58;8.90;99.90
39899;DHT22;25571;47.876;10.642;2023-03-14T03:02:25;8.80;99.90
39899;DHT22;25571;47.876;10.642;2023-03-14T03:04:50;8.80;99.90
39899;DHT22;25571;47.876;10.642;2023-03-14T03:07:16;8.80;99.90
39899;DHT22;25571;47.876;10.642;2023-03-14T03:09:42;8.90;99.90
39899;DHT22;25571;47.876;10.642;2023-03-14T03:12:07;8.90;99.90
39899;DHT22;25571;47.876;10.642;2023-03-14T03:14:33;8.90;99.90
39899;DHT22;25571;47.876;10.642;2023-03-14T03:16:58;8.90;99.90
39899;DHT22;25571;47.876;10.642;2023-03-14T03:19:24;8.80;99.90
39899;DHT22;25571;47.876;10.642;2023-03-14T03:21:50;8.80;99.90
39899;DHT22;25571;47.876;10.642;2023-03-14T03:24:15;8.80;99.90
39899;DHT22;25571;47.876;10.642;2023-03-14T03:26:41;8.80;99.90
39899;DHT22;25571;47.876;10.642;2023-03-14T03:29:06;8.90;99.90
39899;DHT22;25571;47.876;10.642;2023-03-14T03:31:32;8.90;99.90
39899;DHT22;25571;47.876;10.642;2023-03-14T03:33:57;8.90;99.90
39899;DHT22;25571;47.876;10.642;2023-03-14T03:36:25;8.80;99.90
39899;DHT22;25571;47.876;10.642;2023-03-14T03:38:51;8.80;99.90
39899;DHT22;25571;47.876;10.642;2023-03-14T03:41:16;8.90;99.90
39899;DHT22;25571;47.876;10.642;2023-03-14T03:43:42;8.80;99.90
39899;DHT22;25571;47.876;10.642;2023-03-14T03:46:08;8.90;99.90
39899;DHT22;25571;47.876;10.642;2023-03-14T03:48:34;8.90;99.90
39899;DHT22;25571;47.876;10.642;2023-03-14T03:51:00;8.80;99.90
39899;DHT22;25571;47.876;10.642;2023-03-14T03:53:27;8.80;99.90
39899;DHT22;25571;47.876;10.642;2023-03-14T03:55:52;8.90;99.90
39899;DHT22;25571;47.876;10.642;2023-03-14T03:58:18;8.90;99.90
39899;DHT22;25571;47.876;10.642;2023-03-14T04:00:44;8.90;99.90
39899;DHT22;25571;47.876;10.642;2023-03-14T04:03:10;8.90;99.90
39899;DHT22;25571;47.876;10.642;2023-03-14T04:05:35;8.90;99.90
39899;DHT22;25571;47.876;10.642;2023-03-14T04:08:01;8.90;99.90
39899;DHT22;25571;47.876;10.642;2023-03-14T04:10:28;8.90;99.90
39899;DHT22;25571;47.876;10.642;2023-03-14T04:12:53;8.90;99.90
39899;DHT22;25571;47.876;10.642;2023-03-14T04:15:19;9.00;99.90
39899;DHT22;25571;47.876;10.642;2023-03-14T04:17:44;9.00;99.90
39899;DHT22;25571;47.876;10.642;2023-03-14T04:20:10;9.00;99.90
39899;DHT22;25571;47.876;10.642;2023-03-14T04:22:37;8.90;99.90
39899;DHT22;25571;47.876;10.642;2023-03-14T04:25:04;8.90;99.90
39899;DHT22;25571;47.876;10.642;2023-03-14T04:27:30;8.90;99.90
39899;DHT22;25571;47.876;10.642;2023-03-14T04:29:55;9.00;99.90
39899;DHT22;25571;47.876;10.642;2023-03-14T04:32:21;8.90;99.90
39899;DHT22;25571;47.876;10.642;2023-03-14T04:34:47;8.90;99.90
39899;DHT22;25571;47.876;10.642;2023-03-14T04:37:12;9.00;99.90
39899;DHT22;25571;47.876;10.642;2023-03-14T04:39:38;9.00;99.90
39899;DHT22;25571;47.876;10.642;2023-03-14T04:42:04;8.90;99.90
39899;DHT22;25571;47.876;10.642;2023-03-14T04:44:29;8.90;99.90
39899;DHT22;25571;47.876;10.642;2023-03-14T04:46:55;8.90;99.90
39899;DHT22;25571;47.876;10.642;2023-03-14T04:49:21;9.00;99.90
39899;DHT22;25571;47.876;10.642;2023-03-14T04:51:46;9.00;99.90
39899;DHT22;25571;47.876;10.642;2023-03-14T04:54:12;8.90;99.90
39899;DHT22;25571;47.876;10.642;2023-03-14T04:56:37;8.90;99.90
39899;DHT22;25571;47.876;10.642;2023-03-14T04:59:03;8.90;99.90
39899;DHT22;25571;47.876;10.642;2023-03-14T05:01:29;8.90;99.90
39899;DHT22;25571;47.876;10.642;2023-03-14T05:03:55;8.90;99.90
39899;DHT22;25571;47.876;10.642;2023-03-14T05:06:20;8.90;99.90
39899;DHT22;25571;47.876;10.642;2023-03-14T05:08:46;9.00;99.90
39899;DHT22;25571;47.876;10.642;2023-03-14T05:11:11;9.00;99.90
39899;DHT22;25571;47.876;10.642;2023-03-14T05:13:38;8.90;99.90
39899;DHT22;25571;47.876;10.642;2023-03-14T05:16:08;8.90;99.90
39899;DHT22;25571;47.876;10.642;2023-03-14T05:18:34;8.90;99.90
39899;DHT22;25571;47.876;10.642;2023-03-14T05:21:00;8.80;99.90
39899;DHT22;25571;47.876;10.642;2023-03-14T05:23:26;8.80;99.90
39899;DHT22;25571;47.876;10.642;2023-03-14T05:25:51;8.80;99.90
39899;DHT22;25571;47.876;10.642;2023-03-14T05:28:17;8.90;99.90
39899;DHT22;25571;47.876;10.642;2023-03-14T05:30:42;8.90;99.90
39899;DHT22;25571;47.876;10.642;2023-03-14T05:33:08;8.90;99.90
39899;DHT22;25571;47.876;10.642;2023-03-14T05:35:34;8.90;99.90
39899;DHT22;25571;47.876;10.642;2023-03-14T05:37:59;9.00;99.90
39899;DHT22;25571;47.876;10.642;2023-03-14T05:40:25;8.90;99.90
39899;DHT22;25571;47.876;10.642;2023-03-14T05:42:51;8.90;99.90
39899;DHT22;25571;47.876;10.642;2023-03-14T05:45:17;8.90;99.90
39899;DHT22;25571;47.876;10.642;2023-03-14T05:47:43;8.90;99.90
39899;DHT22;25571;47.876;10.642;2023-03-14T05:50:09;8.90;99.90
39899;DHT22;25571;47.876;10.642;2023-03-14T05:52:35;8.80;99.90
39899;DHT22;25571;47.876;10.642;2023-03-14T05:55:00;8.80;99.90
39899;DHT22;25571;47.876;10.642;2023-03-14T05:57:26;8.80;99.90
39899;DHT22;25571;47.876;10.642;2023-03-14T05:59:52;8.90;99.90
39899;DHT22;25571;47.876;10.642;2023-03-14T06:02:17;9.00;99.90
39899;DHT22;25571;47.876;10.642;2023-03-14T06:04:43;9.00;99.90
39899;DHT22;25571;47.876;10.642;2023-03-14T06:07:08;8.90;99.90
39899;DHT22;25571;47.876;10.642;2023-03-14T06:09:34;8.90;99.90
39899;DHT22;25571;47.876;10.642;2023-03-14T06:11:59;8.90;99.90
39899;DHT22;25571;47.876;10.642;2023-03-14T06:14:25;8.90;99.90
39899;DHT22;25571;47.876;10.642;2023-03-14T06:16:50;8.90;99.90
39899;DHT22;25571;47.876;10.642;2023-03-14T06:19:16;8.90;99.90
39899;DHT22;25571;47.876;10.642;2023-03-14T06:21:42;8.90;99.90
39899;DHT22;25571;47.876;10.642;2023-03-14T06:24:07;8.80;99.90
39899;DHT22;25571;47.876;10.642;2023-03-14T06:26:33;8.90;99.90
39899;DHT22;25571;47.876;10.642;2023-03-14T06:28:59;8.90;99.90
39899;DHT22;25571;47.876;10.642;2023-03-14T06:31:31;8.90;99.90
39899;DHT22;25571;47.876;10.642;2023-03-14T06:33:57;8.80;99.90
39899;DHT22;25571;47.876;10.642;2023-03-14T06:36:23;8.80;99.90
39899;DHT22;25571;47.876;10.642;2023-03-14T06:38:49;8.90;99.90
39899;DHT22;25571;47.876;10.642;2023-03-14T06:41:14;8.80;99.90
39899;DHT22;25571;47.876;10.642;2023-03-14T06:43:40;8.90;99.90
39899;DHT22;25571;47.876;10.642;2023-03-14T06:46:05;8.90;99.90
39899;DHT22;25571;47.876;10.642;2023-03-14T06:48:31;8.90;99.90
39899;DHT22;25571;47.876;10.642;2023-03-14T06:50:57;8.90;99.90
39899;DHT22;25571;47.876;10.642;2023-03-14T06:53:23;9.00;99.90
39899;DHT22;25571;47.876;10.642;2023-03-14T06:55:48;9.00;99.90
39899;DHT22;25571;47.876;10.642;2023-03-14T06:58:14;9.00;99.90
39899;DHT22;25571;47.876;10.642;2023-03-14T07:00:40;8.90;99.90
39899;DHT22;25571;47.876;10.642;2023-03-14T07:03:05;9.00;99.90
39899;DHT22;25571;47.876;10.642;2023-03-14T07:05:31;9.00;99.90
39899;DHT22;25571;47.876;10.642;2023-03-14T07:07:57;9.00;99.90
39899;DHT22;25571;47.876;10.642;2023-03-14T07:10:22;9.00;99.90
39899;DHT22;25571;47.876;10.642;2023-03-14T07:12:48;9.00;99.90
39899;DHT22;25571;47.876;10.642;2023-03-14T07:15:14;9.10;99.90
39899;DHT22;25571;47.876;10.642;2023-03-14T07:17:40;9.10;99.90
39899;DHT22;25571;47.876;10.642;2023-03-14T07:20:06;9.10;99.90
39899;DHT22;25571;47.876;10.642;2023-03-14T07:22:32;9.10;99.90
39899;DHT22;25571;47.876;10.642;2023-03-14T07:24:58;9.10;99.90
39899;DHT22;25571;47.876;10.642;2023-03-14T07:27:23;9.20;99.90
39899;DHT22;25571;47.876;10.642;2023-03-14T07:29:49;9.30;99.90
39899;DHT22;25571;47.876;10.642;2023-03-14T07:32:14;9.40;99.90
39899;DHT22;25571;47.876;10.642;2023-03-14T07:34:43;9.30;99.90
39899;DHT22;25571;47.876;10.642;2023-03-14T07:37:09;9.40;99.90
39899;DHT22;25571;47.876;10.642;2023-03-14T07:39:35;9.40;99.90
39899;DHT22;25571;47.876;10.642;2023-03-14T07:42:00;9.40;99.90
39899;DHT22;25571;47.876;10.642;2023-03-14T07:44:26;9.40;99.90
39899;DHT22;25571;47.876;10.642;2023-03-14T07:46:52;9.40;99.90
39899;DHT22;25571;47.876;10.642;2023-03-14T07:49:18;9.40;99.90
39899;DHT22;25571;47.876;10.642;2023-03-14T07:51:43;9.40;99.90
39899;DHT22;25571;47.876;10.642;2023-03-14T07:54:10;9.50;99.90
39899;DHT22;25571;47.876;10.642;2023-03-14T07:56:35;9.50;99.90
39899;DHT22;25571;47.876;10.642;2023-03-14T07:59:01;9.50;99.90
39899;DHT22;25571;47.876;10.642;2023-03-14T08:01:27;9.60;99.90
39899;DHT22;25571;47.876;10.642;2023-03-14T08:03:52;9.60;99.90
39899;DHT22;25571;47.876;10.642;2023-03-14T08:06:18;9.60;99.90
39899;DHT22;25571;47.876;10.642;2023-03-14T08:08:43;9.60;99.90
39899;DHT22;25571;47.876;10.642;2023-03-14T08:11:09;9.70;99.90
39899;DHT22;25571;47.876;10.642;2023-03-14T08:13:36;9.70;99.90
39899;DHT22;25571;47.876;10.642;2023-03-14T08:16:02;9.80;99.90
39899;DHT22;25571;47.876;10.642;2023-03-14T08:18:28;9.90;99.90
39899;DHT22;25571;47.876;10.642;2023-03-14T08:20:53;9.90;99.90
39899;DHT22;25571;47.876;10.642;2023-03-14T08:23:19;9.90;99.90
39899;DHT22;25571;47.876;10.642;2023-03-14T08:25:44;10.00;99.90
39899;DHT22;25571;47.876;10.642;2023-03-14T08:28:10;10.00;99.90
39899;DHT22;25571;47.876;10.642;2023-03-14T08:30:35;10.10;99.90
39899;DHT22;25571;47.876;10.642;2023-03-14T08:33:01;10.10;99.90
39899;DHT22;25571;47.876;10.642;2023-03-14T08:35:27;10.10;99.90
39899;DHT22;25571;47.876;10.642;2023-03-14T08:37:53;10.10;99.90
39899;DHT22;25571;47.876;10.642;2023-03-14T08:40:19;10.00;99.90
39899;DHT22;25571;47.876;10.642;2023-03-14T08:42:45;10.10;99.90
39899;DHT22;25571;47.876;10.642;2023-03-14T08:45:13;10.20;99.90
39899;DHT22;25571;47.876;10.642;2023-03-14T08:47:39;10.20;99.90
39899;DHT22;25571;47.876;10.642;2023-03-14T08:50:06;10.20;99.90
39899;DHT22;25571;47.876;10.642;2023-03-14T08:52:32;10.40;99.90
39899;DHT22;25571;47.876;10.642;2023-03-14T08:54:58;10.60;99.90
39899;DHT22;25571;47.876;10.642;2023-03-14T08:57:24;10.80;99.90
39899;DHT22;25571;47.876;10.642;2023-03-14T08:59:53;11.70;99.90
39899;DHT22;25571;47.876;10.642;2023-03-14T09:02:20;12.40;99.60
39899;DHT22;25571;47.876;10.642;2023-03-14T09:04:45;12.70;97.80
39899;DHT22;25571;47.876;10.642;2023-03-14T09:07:11;13.10;97.50
39899;DHT22;25571;47.876;10.642;2023-03-14T09:09:36;13.80;96.60
39899;DHT22;25571;47.876;10.642;2023-03-14T09:12:02;16.40;95.10
39899;DHT22;25571;47.876;10.642;2023-03-14T09:14:28;16.50;91.00
39899;DHT22;25571;47.876;10.642;2023-03-14T09:16:54;17.00;91.10
39899;DHT22;25571;47.876;10.642;2023-03-14T09:19:20;17.30;90.90
39899;DHT22;25571;47.876;10.642;2023-03-14T09:21:46;18.60;84.20
39899;DHT22;25571;47.876;10.642;2023-03-14T09:24:11;18.90;80.80
39899;DHT22;25571;47.876;10.642;2023-03-14T09:26:37;19.10;81.50
39899;DHT22;25571;47.876;10.642;2023-03-14T09:29:03;19.10;77.40
39899;DHT22;25571;47.876;10.642;2023-03-14T09:31:29;19.70;76.60
39899;DHT22;25571;47.876;10.642;2023-03-14T09:33:55;21.00;73.10
39899;DHT22;25571;47.876;10.642;2023-03-14T09:36:20;20.90;70.30
39899;DHT22;25571;47.876;10.642;2023-03-14T09:38:46;21.90;67.30
39899;DHT22;25571;47.876;10.642;2023-03-14T09:41:25;24.30;60.50
39899;DHT22;25571;47.876;10.642;2023-03-14T09:44:14;26.50;53.00
39899;DHT22;25571;47.876;10.642;2023-03-14T09:46:42;27.80;50.70
39899;DHT22;25571;47.876;10.642;2023-03-14T09:51:52;24.40;49.20
39899;DHT22;25571;47.876;10.642;2023-03-14T09:54:47;22.40;50.50
39899;DHT22;25571;47.876;10.642;2023-03-14T09:57:16;20.70;54.90
39899;DHT22;25571;47.876;10.642;2023-03-14T09:59:44;19.80;57.70
39899;DHT22;25571;47.876;10.642;2023-03-14T10:02:34;19.20;59.00
39899;DHT22;25571;47.876;10.642;2023-03-14T10:05:00;18.50;59.90
39899;DHT22;25571;47.876;10.642;2023-03-14T10:07:29;18.00;62.10
39899;DHT22;25571;47.876;10.642;2023-03-14T10:09:55;17.50;63.80
39899;DHT22;25571;47.876;10.642;2023-03-14T10:12:32;17.00;65.80
39899;DHT22;25571;47.876;10.642;2023-03-14T10:15:03;16.60;68.40
39899;DHT22;25571;47.876;10.642;2023-03-14T10:17:39;16.40;66.70
39899;DHT22;25571;47.876;10.642;2023-03-14T10:20:05;16.10;68.10
39899;DHT22;25571;47.876;10.642;2023-03-14T10:22:31;16.00;68.70
39899;DHT22;25571;47.876;10.642;2023-03-14T10:25:03;15.80;69.20
39899;DHT22;25571;47.876;10.642;2023-03-14T10:27:32;15.90;69.90
39899;DHT22;25571;47.876;10.642;2023-03-14T10:30:00;16.10;71.00
39899;DHT22;25571;47.876;10.642;2023-03-14T10:32:38;16.00;70.80
39899;DHT22;25571;47.876;10.642;2023-03-14T10:38:11;15.80;70.60
39899;DHT22;25571;47.876;10.642;2023-03-14T10:40:39;15.70;70.40
39899;DHT22;25571;47.876;10.642;2023-03-14T10:43:11;15.50;70.90
39899;DHT22;25571;47.876;10.642;2023-03-14T10:45:41;15.30;73.30
39899;DHT22;25571;47.876;10.642;2023-03-14T10:50:55;15.10;71.80
39899;DHT22;25571;47.876;10.642;2023-03-14T10:53:21;15.00;72.90
39899;DHT22;25571;47.876;10.642;2023-03-14T10:55:47;14.80;73.00
39899;DHT22;25571;47.876;10.642;2023-03-14T10:58:31;14.80;73.20
39899;DHT22;25571;47.876;10.642;2023-03-14T11:04:20;14.90;73.30
39899;DHT22;25571;47.876;10.642;2023-03-14T11:21:04;14.50;73.30
39899;DHT22;25571;47.876;10.642;2023-03-14T11:29:29;14.40;74.10
39899;DHT22;25571;47.876;10.642;2023-03-14T11:32:02;14.40;74.90
39899;DHT22;25571;47.876;10.642;2023-03-14T11:34:28;14.20;75.90
39899;DHT22;25571;47.876;10.642;2023-03-14T11:39:41;13.90;76.10
39899;DHT22;25571;47.876;10.642;2023-03-14T11:42:14;13.80;77.80
39899;DHT22;25571;47.876;10.642;2023-03-14T11:44:40;13.80;78.20
39899;DHT22;25571;47.876;10.642;2023-03-14T11:47:24;13.90;79.10
39899;DHT22;25571;47.876;10.642;2023-03-14T11:50:24;13.90;78.70
39899;DHT22;25571;47.876;10.642;2023-03-14T11:55:32;13.80;80.30
39899;DHT22;25571;47.876;10.642;2023-03-14T12:00:39;13.50;85.30
39899;DHT22;25571;47.876;10.642;2023-03-14T12:03:11;13.20;87.20
39899;DHT22;25571;47.876;10.642;2023-03-14T12:06:02;12.90;86.30
39899;DHT22;25571;47.876;10.642;2023-03-14T12:11:30;12.70;85.20
39899;DHT22;25571;47.876;10.642;2023-03-14T12:13:57;12.70;87.50
39899;DHT22;25571;47.876;10.642;2023-03-14T12:18:49;12.50;86.70
39899;DHT22;25571;47.876;10.642;2023-03-14T12:21:15;12.50;87.40
39899;DHT22;25571;47.876;10.642;2023-03-14T12:23:53;12.60;88.80
39899;DHT22;25571;47.876;10.642;2023-03-14T12:26:27;12.60;88.90
39899;DHT22;25571;47.876;10.642;2023-03-14T12:39:40;12.50;91.30
39899;DHT22;25571;47.876;10.642;2023-03-14T12:42:13;12.50;91.90
39899;DHT22;25571;47.876;10.642;2023-03-14T12:44:51;12.30;91.80
39899;DHT22;25571;47.876;10.642;2023-03-14T12:49:47;11.80;93.10
39899;DHT22;25571;47.876;10.642;2023-03-14T12:52:16;11.80;94.30
39899;DHT22;25571;47.876;10.642;2023-03-14T12:54:53;11.60;94.50
39899;DHT22;25571;47.876;10.642;2023-03-14T12:59:57;11.40;95.80
39899;DHT22;25571;47.876;10.642;2023-03-14T13:02:28;11.20;96.10
39899;DHT22;25571;47.876;10.642;2023-03-14T13:05:20;11.00;96.50
39899;DHT22;25571;47.876;10.642;2023-03-14T13:10:19;10.80;97.60
39899;DHT22;25571;47.876;10.642;2023-03-14T13:15:21;10.50;97.90
39899;DHT22;25571;47.876;10.642;2023-03-14T13:17:49;10.30;98.80
39899;DHT22;25571;47.876;10.642;2023-03-14T13:20:26;10.30;99.30
39899;DHT22;25571;47.876;10.642;2023-03-14T13:22:53;10.10;99.30
39899;DHT22;25571;47.876;10.642;2023-03-14T13:25:19;10.00;99.90
39899;DHT22;25571;47.876;10.642;2023-03-14T13:27:47;10.00;99.90
39899;DHT22;25571;47.876;10.642;2023-03-14T13:30:27;9.90;99.90
39899;DHT22;25571;47.876;10.642;2023-03-14T13:32:54;9.70;99.90
39899;DHT22;25571;47.876;10.642;2023-03-14T13:35:26;9.80;99.90
39899;DHT22;25571;47.876;10.642;2023-03-14T13:37:57;9.60;99.90
39899;DHT22;25571;47.876;10.642;2023-03-14T13:40:28;9.40;99.90
39899;DHT22;25571;47.876;10.642;2023-03-14T13:45:52;8.90;99.90
39899;DHT22;25571;47.876;10.642;2023-03-14T13:48:19;8.90;99.90
39899;DHT22;25571;47.876;10.642;2023-03-14T13:51:06;8.90;99.90
39899;DHT22;25571;47.876;10.642;2023-03-14T13:53:42;8.80;99.90
39899;DHT22;25571;47.876;10.642;2023-03-14T13:56:11;8.70;99.90
39899;DHT22;25571;47.876;10.642;2023-03-14T13:58:38;8.60;99.90
39899;DHT22;25571;47.876;10.642;2023-03-14T14:01:10;8.60;99.90
39899;DHT22;25571;47.876;10.642;2023-03-14T14:03:39;8.60;99.90
39899;DHT22;25571;47.876;10.642;2023-03-14T14:06:28;8.50;99.90
39899;DHT22;25571;47.876;10.642;2023-03-14T14:08:59;8.40;99.90
39899;DHT22;25571;47.876;10.642;2023-03-14T14:11:42;8.40;99.90
39899;DHT22;25571;47.876;10.642;2023-03-14T14:14:15;8.40;99.90
39899;DHT22;25571;47.876;10.642;2023-03-14T14:16:44;8.40;99.90
39899;DHT22;25571;47.876;10.642;2023-03-14T14:19:13;8.30;99.90
39899;DHT22;25571;47.876;10.642;2023-03-14T14:21:40;8.40;99.90
39899;DHT22;25571;47.876;10.642;2023-03-14T14:24:11;8.40;99.90
39899;DHT22;25571;47.876;10.642;2023-03-14T14:26:40;8.40;99.90
39899;DHT22;25571;47.876;10.642;2023-03-14T14:29:06;8.40;99.90
39899;DHT22;25571;47.876;10.642;2023-03-14T14:31:32;8.50;99.90
39899;DHT22;25571;47.876;10.642;2023-03-14T14:34:04;8.50;99.90
39899;DHT22;25571;47.876;10.642;2023-03-14T14:36:43;8.50;99.90
39899;DHT22;25571;47.876;10.642;2023-03-14T14:41:48;8.40;99.90
39899;DHT22;25571;47.876;10.642;2023-03-14T14:44:14;8.40;99.90
39899;DHT22;25571;47.876;10.642;2023-03-14T14:46:42;8.50;99.90
39899;DHT22;25571;47.876;10.642;2023-03-14T14:49:15;8.60;99.90
39899;DHT22;25571;47.876;10.642;2023-03-14T14:51:48;8.50;99.90
39899;DHT22;25571;47.876;10.642;2023-03-14T14:54:17;8.60;99.90
39899;DHT22;25571;47.876;10.642;2023-03-14T14:56:47;8.50;99.90
39899;DHT22;25571;47.876;10.642;2023-03-14T14:59:27;8.30;99.90
39899;DHT22;25571;47.876;10.642;2023-03-14T15:02:01;8.20;99.90
39899;DHT22;25571;47.876;10.642;2023-03-14T15:04:30;8.10;99.90
39899;DHT22;25571;47.876;10.642;2023-03-14T15:06:56;7.80;99.90
39899;DHT22;25571;47.876;10.642;2023-03-14T15:09:22;7.60;99.90
39899;DHT22;25571;47.876;10.642;2023-03-14T15:11:49;7.60;99.90
39899;DHT22;25571;47.876;10.642;2023-03-14T15:14:15;7.60;99.90
39899;DHT22;25571;47.876;10.642;2023-03-14T15:16:41;7.60;99.90
39899;DHT22;25571;47.876;10.642;2023-03-14T15:19:20;7.60;99.90
39899;DHT22;25571;47.876;10.642;2023-03-14T15:21:46;7.60;99.90
39899;DHT22;25571;47.876;10.642;2023-03-14T15:24:12;7.60;99.90
39899;DHT22;25571;47.876;10.642;2023-03-14T15:26:38;7.50;99.90
39899;DHT22;25571;47.876;10.642;2023-03-14T15:29:03;7.60;99.90
39899;DHT22;25571;47.876;10.642;2023-03-14T15:31:33;7.60;99.90
39899;DHT22;25571;47.876;10.642;2023-03-14T15:33:59;7.60;99.90
39899;DHT22;25571;47.876;10.642;2023-03-14T15:36:28;7.60;99.90
39899;DHT22;25571;47.876;10.642;2023-03-14T15:38:54;7.60;99.90
39899;DHT22;25571;47.876;10.642;2023-03-14T15:41:21;7.60;99.90
39899;DHT22;25571;47.876;10.642;2023-03-14T15:43:47;7.50;99.90
39899;DHT22;25571;47.876;10.642;2023-03-14T15:46:14;7.50;99.90
39899;DHT22;25571;47.876;10.642;2023-03-14T15:48:40;7.50;99.90
39899;DHT22;25571;47.876;10.642;2023-03-14T15:51:06;7.50;99.90
39899;DHT22;25571;47.876;10.642;2023-03-14T15:53:32;7.50;99.90
39899;DHT22;25571;47.876;10.642;2023-03-14T15:55:58;7.50;99.90
39899;DHT22;25571;47.876;10.642;2023-03-14T15:58:24;7.40;99.90
39899;DHT22;25571;47.876;10.642;2023-03-14T16:00:50;7.40;99.90
39899;DHT22;25571;47.876;10.642;2023-03-14T16:03:16;7.40;99.90
39899;DHT22;25571;47.876;10.642;2023-03-14T16:05:43;7.40;99.90
39899;DHT22;25571;47.876;10.642;2023-03-14T16:08:08;7.50;99.90
39899;DHT22;25571;47.876;10.642;2023-03-14T16:10:34;7.60;99.90
39899;DHT22;25571;47.876;10.642;2023-03-14T16:13:00;7.60;99.90
39899;DHT22;25571;47.876;10.642;2023-03-14T16:15:26;7.60;99.90
39899;DHT22;25571;47.876;10.642;2023-03-14T16:17:55;7.60;99.90
39899;DHT22;25571;47.876;10.642;2023-03-14T16:20:22;7.60;99.90
39899;DHT22;25571;47.876;10.642;2023-03-14T16:22:48;7.40;99.90
39899;DHT22;25571;47.876;10.642;2023-03-14T16:25:14;7.10;99.90
39899;DHT22;25571;47.876;10.642;2023-03-14T16:27:40;7.00;99.90
39899;DHT22;25571;47.876;10.642;2023-03-14T16:30:07;6.90;99.90
39899;DHT22;25571;47.876;10.642;2023-03-14T16:32:33;6.70;99.90
39899;DHT22;25571;47.876;10.642;2023-03-14T16:34:59;6.60;99.90
39899;DHT22;25571;47.876;10.642;2023-03-14T16:37:25;6.50;99.90
39899;DHT22;25571;47.876;10.642;2023-03-14T16:39:52;6.50;99.90
39899;DHT22;25571;47.876;10.642;2023-03-14T16:42:18;6.50;99.90
39899;DHT22;25571;47.876;10.642;2023-03-14T16:44:44;6.40;99.90
39899;DHT22;25571;47.876;10.642;2023-03-14T16:47:10;6.40;99.90
39899;DHT22;25571;47.876;10.642;2023-03-14T16:49:36;6.50;99.90
39899;DHT22;25571;47.876;10.642;2023-03-14T16:52:01;6.50;99.90
39899;DHT22;25571;47.876;10.642;2023-03-14T16:54:27;6.50;99.90